Piloezinhos, Brazil
Current Conditions -  °F | °C
As of 2:00 PM on Tuesday 21 Oct 2014 (Local Time) from SBKG Reporting Station
Broken Clouds Broken Clouds  
Wind Chill: 84°   Ceiling: 4600
Heat Index: 84°   Visibility: 6mi
Dew Point: 61°   Wind: 14mph
Humidity: 45%   Direction: 80°E
Pressure: 29.94"   Gusts: NA
Location:  6.86°S, 35.52°W
Report Text: SBKG 211700Z 08012KT 9999 BKN046 29/16 Q1014
Loading
Personal Weather Stations






























Interactive Weather Map
Tropical Storm Tracking
New forecast layout! Learn more

10-Day Weather Forecast

Advertisements
Track Severe Weather on mobile